Aviation Digital Data Service (ADDS)

Output produced by METARs form (1453 UTC 25 January 2020)
found at http://www.aviationweather.gov/metar/data/
 
METAR text: KPNS 251353Z 28003KT 10SM CLR 06/03 A3021 RMK AO2 SLP234 T00610033
Conditions at: KPNS (PENSACOLA , FL, US) observed 1353 UTC 25 January 2020
Temperature: 6.1°C (43°F)
Dewpoint: 3.3°C (38°F) [RH = 82%]
Pressure (altimeter): 30.21 inches Hg (1023.1 mb)
[Sea-level pressure: 1023.4 mb]
Winds: from the W (280 degrees) at 3 MPH (3 knots; 1.5 m/s)
Visibility: 10 or more miles (16+ km)
Ceiling: at least 12,000 feet AGL
Clouds: sky clear below 12,000 feet AGL
Weather: no significant weather observed at this time

METAR text: KPNS 251253Z 00000KT 10SM CLR 04/02 A3018 RMK AO2 SLP224 T00440022
Conditions at: KPNS (PENSACOLA , FL, US) observed 1253 UTC 25 January 2020
Temperature: 4.4°C (40°F)
Dewpoint: 2.2°C (36°F) [RH = 86%]
Pressure (altimeter): 30.18 inches Hg (1022.1 mb)
[Sea-level pressure: 1022.4 mb]
Winds: calm
Visibility: 10 or more miles (16+ km)
Ceiling: at least 12,000 feet AGL
Clouds: sky clear below 12,000 feet AGL
Weather: no significant weather observed at this time

METAR text: KPNS 251153Z 34003KT 10SM CLR 03/02 A3016 RMK AO2 SLP217 T00330017 10094 20033 53015
Conditions at: KPNS (PENSACOLA , FL, US) observed 1153 UTC 25 January 2020
Temperature: 3.3°C (38°F)
Dewpoint: 1.7°C (35°F) [RH = 89%]
Pressure (altimeter): 30.16 inches Hg (1021.4 mb)
[Sea-level pressure: 1021.7 mb]
Winds: from the NNW (340 degrees) at 3 MPH (3 knots; 1.5 m/s)
Visibility: 10 or more miles (16+ km)
Ceiling: at least 12,000 feet AGL
Clouds: sky clear below 12,000 feet AGL
Weather: no significant weather observed at this time

METAR text: KPNS 251053Z AUTO 00000KT 10SM CLR 04/02 A3014 RMK AO2 SLP209 T00440022
Conditions at: KPNS (PENSACOLA , FL, US) observed 1053 UTC 25 January 2020
Temperature: 4.4°C (40°F)
Dewpoint: 2.2°C (36°F) [RH = 86%]
Pressure (altimeter): 30.14 inches Hg (1020.7 mb)
[Sea-level pressure: 1020.9 mb]
Winds: calm
Visibility: 10 or more miles (16+ km)
Ceiling: at least 12,000 feet AGL
Clouds: sky clear below 12,000 feet AGL
Weather: automated observation with no human augmentation;
there may or may not be significant weather present at this time

METAR text: KPNS 250953Z AUTO 36007KT 10SM CLR 06/02 A3012 RMK AO2 SLP201 T00610022
Conditions at: KPNS (PENSACOLA , FL, US) observed 0953 UTC 25 January 2020
Temperature: 6.1°C (43°F)
Dewpoint: 2.2°C (36°F) [RH = 76%]
Pressure (altimeter): 30.12 inches Hg (1020.1 mb)
[Sea-level pressure: 1020.1 mb]
Winds: from the N (360 degrees) at 8 MPH (7 knots; 3.6 m/s)
Visibility: 10 or more miles (16+ km)
Ceiling: at least 12,000 feet AGL
Clouds: sky clear below 12,000 feet AGL
Weather: automated observation with no human augmentation;
there may or may not be significant weather present at this time

METAR text: KPNS 250853Z AUTO 36008KT 10SM CLR 07/03 A3012 RMK AO2 SLP201 T00670028 53003
Conditions at: KPNS (PENSACOLA , FL, US) observed 0853 UTC 25 January 2020
Temperature: 6.7°C (44°F)
Dewpoint: 2.8°C (37°F) [RH = 76%]
Pressure (altimeter): 30.12 inches Hg (1020.1 mb)
[Sea-level pressure: 1020.1 mb]
Winds: from the N (360 degrees) at 9 MPH (8 knots; 4.1 m/s)
Visibility: 10 or more miles (16+ km)
Ceiling: at least 12,000 feet AGL
Clouds: sky clear below 12,000 feet AGL
Weather: automated observation with no human augmentation;
there may or may not be significant weather present at this time

METAR text: KPNS 250753Z AUTO 36008KT 10SM CLR 08/03 A3012 RMK AO2 SLP200 T00780033
Conditions at: KPNS (PENSACOLA , FL, US) observed 0753 UTC 25 January 2020
Temperature: 7.8°C (46°F)
Dewpoint: 3.3°C (38°F) [RH = 73%]
Pressure (altimeter): 30.12 inches Hg (1020.1 mb)
[Sea-level pressure: 1020.0 mb]
Winds: from the N (360 degrees) at 9 MPH (8 knots; 4.1 m/s)
Visibility: 10 or more miles (16+ km)
Ceiling: at least 12,000 feet AGL
Clouds: sky clear below 12,000 feet AGL
Weather: automated observation with no human augmentation;
there may or may not be significant weather present at this time

METAR text: KPNS 250653Z AUTO 35012KT 10SM CLR 09/03 A3011 RMK AO2 SLP199 T00890033
Conditions at: KPNS (PENSACOLA , FL, US) observed 0653 UTC 25 January 2020
Temperature: 8.9°C (48°F)
Dewpoint: 3.3°C (38°F) [RH = 68%]
Pressure (altimeter): 30.11 inches Hg (1019.7 mb)
[Sea-level pressure: 1019.9 mb]
Winds: from the N (350 degrees) at 14 MPH (12 knots; 6.2 m/s)
Visibility: 10 or more miles (16+ km)
Ceiling: at least 12,000 feet AGL
Clouds: sky clear below 12,000 feet AGL
Weather: automated observation with no human augmentation;
there may or may not be significant weather present at this time

METAR text: KPNS 250553Z AUTO 34011KT 10SM CLR 09/04 A3011 RMK AO2 SLP198 T00940039 10139 20089 401890089 53013
Conditions at: KPNS (PENSACOLA , FL, US) observed 0553 UTC 25 January 2020
Temperature: 9.4°C (49°F)
Dewpoint: 3.9°C (39°F) [RH = 68%]
Pressure (altimeter): 30.11 inches Hg (1019.7 mb)
[Sea-level pressure: 1019.8 mb]
Winds: from the NNW (340 degrees) at 13 MPH (11 knots; 5.7 m/s)
Visibility: 10 or more miles (16+ km)
Ceiling: at least 12,000 feet AGL
Clouds: sky clear below 12,000 feet AGL
Weather: automated observation with no human augmentation;
there may or may not be significant weather present at this time

METAR text: KPNS 250453Z AUTO 31007KT 10SM CLR 09/06 A3010 RMK AO2 SLP196 T00940061
Conditions at: KPNS (PENSACOLA , FL, US) observed 0453 UTC 25 January 2020
Temperature: 9.4°C (49°F)
Dewpoint: 6.1°C (43°F) [RH = 80%]
Pressure (altimeter): 30.10 inches Hg (1019.4 mb)
[Sea-level pressure: 1019.6 mb]
Winds: from the NW (310 degrees) at 8 MPH (7 knots; 3.6 m/s)
Visibility: 10 or more miles (16+ km)
Ceiling: at least 12,000 feet AGL
Clouds: sky clear below 12,000 feet AGL
Weather: automated observation with no human augmentation;
there may or may not be significant weather present at this time

METAR text: KPNS 250353Z 29006KT 10SM CLR 11/07 A3008 RMK AO2 SLP189 T01060067
Conditions at: KPNS (PENSACOLA , FL, US) observed 0353 UTC 25 January 2020
Temperature: 10.6°C (51°F)
Dewpoint: 6.7°C (44°F) [RH = 77%]
Pressure (altimeter): 30.08 inches Hg (1018.7 mb)
[Sea-level pressure: 1018.9 mb]
Winds: from the WNW (290 degrees) at 7 MPH (6 knots; 3.1 m/s)
Visibility: 10 or more miles (16+ km)
Ceiling: at least 12,000 feet AGL
Clouds: sky clear below 12,000 feet AGL
Weather: no significant weather observed at this time

METAR text: KPNS 250253Z 27006KT 10SM CLR 11/07 A3007 RMK AO2 SLP186 T01110067 51016
Conditions at: KPNS (PENSACOLA , FL, US) observed 0253 UTC 25 January 2020
Temperature: 11.1°C (52°F)
Dewpoint: 6.7°C (44°F) [RH = 74%]
Pressure (altimeter): 30.07 inches Hg (1018.4 mb)
[Sea-level pressure: 1018.6 mb]
Winds: from the W (270 degrees) at 7 MPH (6 knots; 3.1 m/s)
Visibility: 10 or more miles (16+ km)
Ceiling: at least 12,000 feet AGL
Clouds: sky clear below 12,000 feet AGL
Weather: no significant weather observed at this time

METAR text: KPNS 250153Z 26007KT 10SM CLR 12/07 A3006 RMK AO2 SLP182 T01170072
Conditions at: KPNS (PENSACOLA , FL, US) observed 0153 UTC 25 January 2020
Temperature: 11.7°C (53°F)
Dewpoint: 7.2°C (45°F) [RH = 74%]
Pressure (altimeter): 30.06 inches Hg (1018.0 mb)
[Sea-level pressure: 1018.2 mb]
Winds: from the W (260 degrees) at 8 MPH (7 knots; 3.6 m/s)
Visibility: 10 or more miles (16+ km)
Ceiling: at least 12,000 feet AGL
Clouds: sky clear below 12,000 feet AGL
Weather: no significant weather observed at this time

METAR text: KPNS 250053Z 25007KT 10SM CLR 13/06 A3005 RMK AO2 SLP177 T01280061
Conditions at: KPNS (PENSACOLA , FL, US) observed 0053 UTC 25 January 2020
Temperature: 12.8°C (55°F)
Dewpoint: 6.1°C (43°F) [RH = 64%]
Pressure (altimeter): 30.05 inches Hg (1017.7 mb)
[Sea-level pressure: 1017.7 mb]
Winds: from the WSW (250 degrees) at 8 MPH (7 knots; 3.6 m/s)
Visibility: 10 or more miles (16+ km)
Ceiling: at least 12,000 feet AGL
Clouds: sky clear below 12,000 feet AGL
Weather: no significant weather observed at this time

METAR text: KPNS 242353Z 26008KT 10SM CLR 14/05 A3003 RMK AO2 SLP170 T01390050 10189 20139 53014
Conditions at: KPNS (PENSACOLA , FL, US) observed 2353 UTC 24 January 2020
Temperature: 13.9°C (57°F)
Dewpoint: 5.0°C (41°F) [RH = 55%]
Pressure (altimeter): 30.03 inches Hg (1017.0 mb)
[Sea-level pressure: 1017.0 mb]
Winds: from the W (260 degrees) at 9 MPH (8 knots; 4.1 m/s)
Visibility: 10 or more miles (16+ km)
Ceiling: at least 12,000 feet AGL
Clouds: sky clear below 12,000 feet AGL
Weather: no significant weather observed at this time

METAR text: KPNS 242253Z 26010KT 10SM CLR 17/00 A3000 RMK AO2 SLP161 T01670000
Conditions at: KPNS (PENSACOLA , FL, US) observed 2253 UTC 24 January 2020
Temperature: 16.7°C (62°F)
Dewpoint: 0.0°C (32°F) [RH = 32%]
Pressure (altimeter): 30.00 inches Hg (1016.0 mb)
[Sea-level pressure: 1016.1 mb]
Winds: from the W (260 degrees) at 12 MPH (10 knots; 5.1 m/s)
Visibility: 10 or more miles (16+ km)
Ceiling: at least 12,000 feet AGL
Clouds: sky clear below 12,000 feet AGL
Weather: no significant weather observed at this time

METAR text: KPNS 242153Z 30008KT 10SM CLR 18/02 A2999 RMK AO2 SLP156 T01830017
Conditions at: KPNS (PENSACOLA , FL, US) observed 2153 UTC 24 January 2020
Temperature: 18.3°C (65°F)
Dewpoint: 1.7°C (35°F) [RH = 33%]
Pressure (altimeter): 29.99 inches Hg (1015.7 mb)
[Sea-level pressure: 1015.6 mb]
Winds: from the WNW (300 degrees) at 9 MPH (8 knots; 4.1 m/s)
Visibility: 10 or more miles (16+ km)
Ceiling: at least 12,000 feet AGL
Clouds: sky clear below 12,000 feet AGL
Weather: no significant weather observed at this time

METAR text: KPNS 242053Z AUTO 31007G16KT 10SM CLR 18/03 A2999 RMK AO2 SLP156 T01830028 56018
Conditions at: KPNS (PENSACOLA , FL, US) observed 2053 UTC 24 January 2020
Temperature: 18.3°C (65°F)
Dewpoint: 2.8°C (37°F) [RH = 36%]
Pressure (altimeter): 29.99 inches Hg (1015.7 mb)
[Sea-level pressure: 1015.6 mb]
Winds: from the NW (310 degrees) at 8 MPH (7 knots; 3.6 m/s)
gusting to 18 MPH (16 knots; 8.2 m/s)
Visibility: 10 or more miles (16+ km)
Ceiling: at least 12,000 feet AGL
Clouds: sky clear below 12,000 feet AGL
Weather: automated observation with no human augmentation;
there may or may not be significant weather present at this time

METAR text: KPNS 241953Z 34013G20KT 10SM CLR 18/03 A3000 RMK AO2 SLP160 T01830033
Conditions at: KPNS (PENSACOLA , FL, US) observed 1953 UTC 24 January 2020
Temperature: 18.3°C (65°F)
Dewpoint: 3.3°C (38°F) [RH = 37%]
Pressure (altimeter): 30.00 inches Hg (1016.0 mb)
[Sea-level pressure: 1016.0 mb]
Winds: from the NNW (340 degrees) at 15 MPH (13 knots; 6.7 m/s)
gusting to 23 MPH (20 knots; 10.3 m/s)
Visibility: 10 or more miles (16+ km)
Ceiling: at least 12,000 feet AGL
Clouds: sky clear below 12,000 feet AGL
Weather: no significant weather observed at this time

METAR text: KPNS 241853Z 31011KT 10SM CLR 18/06 A3002 RMK AO2 SLP168 T01780061
Conditions at: KPNS (PENSACOLA , FL, US) observed 1853 UTC 24 January 2020
Temperature: 17.8°C (64°F)
Dewpoint: 6.1°C (43°F) [RH = 46%]
Pressure (altimeter): 30.02 inches Hg (1016.7 mb)
[Sea-level pressure: 1016.8 mb]
Winds: from the NW (310 degrees) at 13 MPH (11 knots; 5.7 m/s)
Visibility: 10 or more miles (16+ km)
Ceiling: at least 12,000 feet AGL
Clouds: sky clear below 12,000 feet AGL
Weather: no significant weather observed at this time

METAR text: KPNS 241753Z 30009KT 10SM FEW008 17/09 A3004 RMK AO2 SLP173 T01670094 10167 20128 58007
Conditions at: KPNS (PENSACOLA , FL, US) observed 1753 UTC 24 January 2020
Temperature: 16.7°C (62°F)
Dewpoint: 9.4°C (49°F) [RH = 62%]
Pressure (altimeter): 30.04 inches Hg (1017.4 mb)
[Sea-level pressure: 1017.3 mb]
Winds: from the WNW (300 degrees) at 10 MPH (9 knots; 4.6 m/s)
Visibility: 10 or more miles (16+ km)
Ceiling: at least 12,000 feet AGL
Clouds: few clouds at 800 feet AGL
Weather: no significant weather observed at this time

METAR text: KPNS 241739Z COR 33008KT 10SM FEW007 16/12 A3004 RMK AO2 T01610117
Conditions at: KPNS (PENSACOLA , FL, US) observed 1739 UTC 24 January 2020
Temperature: 16.1°C (61°F)
Dewpoint: 11.7°C (53°F) [RH = 75%]
Pressure (altimeter): 30.04 inches Hg (1017.4 mb)
Winds: from the NNW (330 degrees) at 9 MPH (8 knots; 4.1 m/s)
Visibility: 10 or more miles (16+ km)
Ceiling: at least 12,000 feet AGL
Clouds: few clouds at 700 feet AGL
Weather: no significant weather observed at this time

METAR text: KPNS 241653Z 30012G17KT 10SM OVC009 14/12 A3007 RMK AO2 CIG 007V011 SLP183 T01390117
Conditions at: KPNS (PENSACOLA , FL, US) observed 1653 UTC 24 January 2020
Temperature: 13.9°C (57°F)
Dewpoint: 11.7°C (53°F) [RH = 87%]
Pressure (altimeter): 30.07 inches Hg (1018.4 mb)
[Sea-level pressure: 1018.3 mb]
Winds: from the WNW (300 degrees) at 14 MPH (12 knots; 6.2 m/s)
gusting to 20 MPH (17 knots; 8.7 m/s)
Visibility: 10 or more miles (16+ km)
Ceiling: 900 feet AGL
Clouds: overcast cloud deck at 900 feet AGL
Weather: no significant weather observed at this time

METAR text: KPNS 241650Z 31012KT 10SM OVC009 14/12 A3006 RMK AO2 CIG 007V012
Conditions at: KPNS (PENSACOLA , FL, US) observed 1650 UTC 24 January 2020
Temperature: 14.0°C (57°F)
Dewpoint: 12.0°C (54°F) [RH = 88%]
Pressure (altimeter): 30.06 inches Hg (1018.0 mb)
Winds: from the NW (310 degrees) at 14 MPH (12 knots; 6.2 m/s)
Visibility: 10 or more miles (16+ km)
Ceiling: 900 feet AGL
Clouds: overcast cloud deck at 900 feet AGL
Weather: no significant weather observed at this time

METAR text: KPNS 241553Z COR 32011KT 10SM OVC009 14/12 A3006 RMK AO2 SLP181 T01440122
Conditions at: KPNS (PENSACOLA , FL, US) observed 1553 UTC 24 January 2020
Temperature: 14.4°C (58°F)
Dewpoint: 12.2°C (54°F) [RH = 87%]
Pressure (altimeter): 30.06 inches Hg (1018.0 mb)
[Sea-level pressure: 1018.1 mb]
Winds: from the NW (320 degrees) at 13 MPH (11 knots; 5.7 m/s)
Visibility: 10 or more miles (16+ km)
Ceiling: 900 feet AGL
Clouds: overcast cloud deck at 900 feet AGL
Weather: no significant weather observed at this time

METAR text: KPNS 241546Z 31006KT 10SM OVC010 14/12 A3006 RMK AO2 T01440122
Conditions at: KPNS (PENSACOLA , FL, US) observed 1546 UTC 24 January 2020
Temperature: 14.4°C (58°F)
Dewpoint: 12.2°C (54°F) [RH = 87%]
Pressure (altimeter): 30.06 inches Hg (1018.0 mb)
Winds: from the NW (310 degrees) at 7 MPH (6 knots; 3.1 m/s)
Visibility: 10 or more miles (16+ km)
Ceiling: 1000 feet AGL
Clouds: overcast cloud deck at 1000 feet AGL
Weather: no significant weather observed at this time

METAR text: KPNS 241453Z 33010KT 9SM OVC006 13/12 A3004 RMK AO2 SLP175 T01330122 53028
Conditions at: KPNS (PENSACOLA , FL, US) observed 1453 UTC 24 January 2020
Temperature: 13.3°C (56°F)
Dewpoint: 12.2°C (54°F) [RH = 93%]
Pressure (altimeter): 30.04 inches Hg (1017.4 mb)
[Sea-level pressure: 1017.5 mb]
Winds: from the NNW (330 degrees) at 12 MPH (10 knots; 5.1 m/s)
Visibility: 9 miles (14 km)
Ceiling: 600 feet AGL
Clouds: overcast cloud deck at 600 feet AGL
Weather: no significant weather observed at this time

METAR text: KPNS 241442Z 32011KT 7SM OVC006 13/12 A3004 RMK AO2 T01280122
Conditions at: KPNS (PENSACOLA , FL, US) observed 1442 UTC 24 January 2020
Temperature: 12.8°C (55°F)
Dewpoint: 12.2°C (54°F) [RH = 96%]
Pressure (altimeter): 30.04 inches Hg (1017.4 mb)
Winds: from the NW (320 degrees) at 13 MPH (11 knots; 5.7 m/s)
Visibility: 7 miles (11 km)
Ceiling: 600 feet AGL
Clouds: overcast cloud deck at 600 feet AGL
Weather: no significant weather observed at this time

METAR text: KPNS 241412Z 32015KT 3SM BR OVC002 13/12 A3002 RMK AO2 T01280122
Conditions at: KPNS (PENSACOLA , FL, US) observed 1412 UTC 24 January 2020
Temperature: 12.8°C (55°F)
Dewpoint: 12.2°C (54°F) [RH = 96%]
Pressure (altimeter): 30.02 inches Hg (1016.7 mb)
Winds: from the NW (320 degrees) at 17 MPH (15 knots; 7.7 m/s)
Visibility: 3 miles ( 5 km)
Ceiling: 200 feet AGL
Clouds: overcast cloud deck at 200 feet AGL
Weather: BR  (mist)

METAR text: KPNS 241353Z 32007KT 1 3/4SM R17/6000VP6000FT BR OVC002 13/12 A3001 RMK AO2 SLP163 T01280122
Conditions at: KPNS (PENSACOLA , FL, US) observed 1353 UTC 24 January 2020
Temperature: 12.8°C (55°F)
Dewpoint: 12.2°C (54°F) [RH = 96%]
Pressure (altimeter): 30.01 inches Hg (1016.3 mb)
[Sea-level pressure: 1016.3 mb]
Winds: from the NW (320 degrees) at 8 MPH (7 knots; 3.6 m/s)
Visibility: 1.75 miles (2.82 km)
Ceiling: 200 feet AGL
Clouds: overcast cloud deck at 200 feet AGL
Weather: BR  (mist)

METAR text: KPNS 241346Z 33007KT 2 1/2SM BR OVC002 13/12 A3000 RMK AO2 T01280122
Conditions at: KPNS (PENSACOLA , FL, US) observed 1346 UTC 24 January 2020
Temperature: 12.8°C (55°F)
Dewpoint: 12.2°C (54°F) [RH = 96%]
Pressure (altimeter): 30.00 inches Hg (1016.0 mb)
Winds: from the NNW (330 degrees) at 8 MPH (7 knots; 3.6 m/s)
Visibility: 2.50 miles (4.02 km)
Ceiling: 200 feet AGL
Clouds: overcast cloud deck at 200 feet AGL
Weather: BR  (mist)

METAR text: KPNS 241337Z 33008KT 1SM R17/2400VP6000FT BR OVC002 13/12 A3000 RMK AO2 T01280122
Conditions at: KPNS (PENSACOLA , FL, US) observed 1337 UTC 24 January 2020
Temperature: 12.8°C (55°F)
Dewpoint: 12.2°C (54°F) [RH = 96%]
Pressure (altimeter): 30.00 inches Hg (1016.0 mb)
Winds: from the NNW (330 degrees) at 9 MPH (8 knots; 4.1 m/s)
Visibility: 1.00 miles (1.61 km)
Ceiling: 200 feet AGL
Clouds: overcast cloud deck at 200 feet AGL
Weather: BR  (mist)

METAR text: KPNS 241330Z 31007KT 1/4SM R17/2000V4000FT FG OVC002 13/12 A3000 RMK AO2 T01280122
Conditions at: KPNS (PENSACOLA , FL, US) observed 1330 UTC 24 January 2020
Temperature: 12.8°C (55°F)
Dewpoint: 12.2°C (54°F) [RH = 96%]
Pressure (altimeter): 30.00 inches Hg (1016.0 mb)
Winds: from the NW (310 degrees) at 8 MPH (7 knots; 3.6 m/s)
Visibility: 0.25 miles (0.40 km)
Ceiling: 200 feet AGL
Clouds: overcast cloud deck at 200 feet AGL
Weather: FG  (fog)

METAR text: KPNS 241318Z 31008KT 3/4SM R17/2200VP6000FT BR OVC002 13/12 A2999 RMK AO2 T01280122
Conditions at: KPNS (PENSACOLA , FL, US) observed 1318 UTC 24 January 2020
Temperature: 12.8°C (55°F)
Dewpoint: 12.2°C (54°F) [RH = 96%]
Pressure (altimeter): 29.99 inches Hg (1015.7 mb)
Winds: from the NW (310 degrees) at 9 MPH (8 knots; 4.1 m/s)
Visibility: 0.75 miles (1.21 km)
Ceiling: 200 feet AGL
Clouds: overcast cloud deck at 200 feet AGL
Weather: BR  (mist)

METAR text: KPNS 241259Z 32006KT 2 1/2SM BR BKN003 BKN037 13/13 A2998 RMK AO2 T01330128
Conditions at: KPNS (PENSACOLA , FL, US) observed 1259 UTC 24 January 2020
Temperature: 13.3°C (56°F)
Dewpoint: 12.8°C (55°F) [RH = 97%]
Pressure (altimeter): 29.98 inches Hg (1015.3 mb)
Winds: from the NW (320 degrees) at 7 MPH (6 knots; 3.1 m/s)
Visibility: 2.50 miles (4.02 km)
Ceiling: 300 feet AGL
Clouds: broken clouds at 300 feet AGL
broken clouds at 3700 feet AGL
Weather: BR  (mist)

METAR text: KPNS 241253Z 32006KT 3SM BR BKN004 OVC015 13/13 A2998 RMK AO2 SLP154 T01330128
Conditions at: KPNS (PENSACOLA , FL, US) observed 1253 UTC 24 January 2020
Temperature: 13.3°C (56°F)
Dewpoint: 12.8°C (55°F) [RH = 97%]
Pressure (altimeter): 29.98 inches Hg (1015.3 mb)
[Sea-level pressure: 1015.4 mb]
Winds: from the NW (320 degrees) at 7 MPH (6 knots; 3.1 m/s)
Visibility: 3 miles ( 5 km)
Ceiling: 400 feet AGL
Clouds: broken clouds at 400 feet AGL
overcast cloud deck at 1500 feet AGL
Weather: BR  (mist)

METAR text: KPNS 241153Z 30008KT 5SM BR BKN003 OVC015 14/14 A2996 RMK AO2 SLP147 60000 70040 T01440139 10156 20117 53009
Conditions at: KPNS (PENSACOLA , FL, US) observed 1153 UTC 24 January 2020
Temperature: 14.4°C (58°F)
Dewpoint: 13.9°C (57°F) [RH = 97%]
Pressure (altimeter): 29.96 inches Hg (1014.6 mb)
[Sea-level pressure: 1014.7 mb]
Winds: from the WNW (300 degrees) at 9 MPH (8 knots; 4.1 m/s)
Visibility: 5 miles ( 8 km)
Ceiling: 300 feet AGL
Clouds: broken clouds at 300 feet AGL
overcast cloud deck at 1500 feet AGL
Weather: BR  (mist)

METAR text: KPNS 241109Z AUTO 30005KT 9SM BKN004 14/13 A2994 RMK AO2 T01390133
Conditions at: KPNS (PENSACOLA , FL, US) observed 1109 UTC 24 January 2020
Temperature: 13.9°C (57°F)
Dewpoint: 13.3°C (56°F) [RH = 96%]
Pressure (altimeter): 29.94 inches Hg (1014.0 mb)
Winds: from the WNW (300 degrees) at 6 MPH (5 knots; 2.6 m/s)
Visibility: 9 miles (14 km)
Ceiling: 400 feet AGL
Clouds: broken clouds at 400 feet AGL
Weather: automated observation with no human augmentation;
there may or may not be significant weather present at this time

METAR text: KPNS 241105Z AUTO 29005KT 9SM SCT006 13/13 A2994 RMK AO2 T01330128
Conditions at: KPNS (PENSACOLA , FL, US) observed 1105 UTC 24 January 2020
Temperature: 13.3°C (56°F)
Dewpoint: 12.8°C (55°F) [RH = 97%]
Pressure (altimeter): 29.94 inches Hg (1014.0 mb)
Winds: from the WNW (290 degrees) at 6 MPH (5 knots; 2.6 m/s)
Visibility: 9 miles (14 km)
Ceiling: at least 12,000 feet AGL
Clouds: scattered clouds at 600 feet AGL
Weather: automated observation with no human augmentation;
there may or may not be significant weather present at this time

METAR text: KPNS 241053Z AUTO 30005KT 9SM FEW017 SCT026 13/12 A2993 RMK AO2 SLP138 T01280122
Conditions at: KPNS (PENSACOLA , FL, US) observed 1053 UTC 24 January 2020
Temperature: 12.8°C (55°F)
Dewpoint: 12.2°C (54°F) [RH = 96%]
Pressure (altimeter): 29.93 inches Hg (1013.6 mb)
[Sea-level pressure: 1013.8 mb]
Winds: from the WNW (300 degrees) at 6 MPH (5 knots; 2.6 m/s)
Visibility: 9 miles (14 km)
Ceiling: at least 12,000 feet AGL
Clouds: few clouds at 1700 feet AGL
scattered clouds at 2600 feet AGL
Weather: automated observation with no human augmentation;
there may or may not be significant weather present at this time

METAR text: KPNS 241030Z AUTO 29003KT 7SM FEW020 SCT031 14/13 A2993 RMK AO2 T01390128
Conditions at: KPNS (PENSACOLA , FL, US) observed 1030 UTC 24 January 2020
Temperature: 13.9°C (57°F)
Dewpoint: 12.8°C (55°F) [RH = 93%]
Pressure (altimeter): 29.93 inches Hg (1013.6 mb)
Winds: from the WNW (290 degrees) at 3 MPH (3 knots; 1.5 m/s)
Visibility: 7 miles (11 km)
Ceiling: at least 12,000 feet AGL
Clouds: few clouds at 2000 feet AGL
scattered clouds at 3100 feet AGL
Weather: automated observation with no human augmentation;
there may or may not be significant weather present at this time

METAR text: KPNS 241020Z AUTO 30003KT 2SM BR FEW033 FEW043 13/12 A2993 RMK AO2 VIS 1 1/4V4 T01280122
Conditions at: KPNS (PENSACOLA , FL, US) observed 1020 UTC 24 January 2020
Temperature: 12.8°C (55°F)
Dewpoint: 12.2°C (54°F) [RH = 96%]
Pressure (altimeter): 29.93 inches Hg (1013.6 mb)
Winds: from the WNW (300 degrees) at 3 MPH (3 knots; 1.5 m/s)
Visibility: 2.00 miles (3.22 km)
Ceiling: at least 12,000 feet AGL
Clouds: few clouds at 3300 feet AGL
few clouds at 4300 feet AGL
Weather: BR  (mist)

METAR text: KPNS 241009Z AUTO 00000KT 1/2SM R17/P6000FT FG FEW028 SCT043 12/12 A2993 RMK AO2 T01220117
Conditions at: KPNS (PENSACOLA , FL, US) observed 1009 UTC 24 January 2020
Temperature: 12.2°C (54°F)
Dewpoint: 11.7°C (53°F) [RH = 97%]
Pressure (altimeter): 29.93 inches Hg (1013.6 mb)
Winds: calm
Visibility: 0.50 miles (0.80 km)
Ceiling: at least 12,000 feet AGL
Clouds: few clouds at 2800 feet AGL
scattered clouds at 4300 feet AGL
Weather: FG  (fog)

METAR text: KPNS 240959Z AUTO 00000KT 1 3/4SM BR FEW022 SCT040 13/13 A2993 RMK AO2 T01280128
Conditions at: KPNS (PENSACOLA , FL, US) observed 0959 UTC 24 January 2020
Temperature: 12.8°C (55°F)
Dewpoint: 12.8°C (55°F) [RH = 100%]
Pressure (altimeter): 29.93 inches Hg (1013.6 mb)
Winds: calm
Visibility: 1.75 miles (2.82 km)
Ceiling: at least 12,000 feet AGL
Clouds: few clouds at 2200 feet AGL
scattered clouds at 4000 feet AGL
Weather: BR  (mist)

METAR text: KPNS 240953Z AUTO 00000KT 9SM FEW022 FEW040 14/13 A2993 RMK AO2 SLP137 T01390133
Conditions at: KPNS (PENSACOLA , FL, US) observed 0953 UTC 24 January 2020
Temperature: 13.9°C (57°F)
Dewpoint: 13.3°C (56°F) [RH = 96%]
Pressure (altimeter): 29.93 inches Hg (1013.6 mb)
[Sea-level pressure: 1013.7 mb]
Winds: calm
Visibility: 9 miles (14 km)
Ceiling: at least 12,000 feet AGL
Clouds: few clouds at 2200 feet AGL
few clouds at 4000 feet AGL
Weather: automated observation with no human augmentation;
there may or may not be significant weather present at this time

METAR text: KPNS 240940Z AUTO 28004KT 3SM BR FEW022 13/13 A2993 RMK AO2 T01330128
Conditions at: KPNS (PENSACOLA , FL, US) observed 0940 UTC 24 January 2020
Temperature: 13.3°C (56°F)
Dewpoint: 12.8°C (55°F) [RH = 97%]
Pressure (altimeter): 29.93 inches Hg (1013.6 mb)
Winds: from the W (280 degrees) at 5 MPH (4 knots; 2.1 m/s)
Visibility: 3 miles ( 5 km)
Ceiling: at least 12,000 feet AGL
Clouds: few clouds at 2200 feet AGL
Weather: BR  (mist)

METAR text: KPNS 240921Z AUTO 00000KT 1 1/2SM BR FEW003 SCT026 12/12 A2993 RMK AO2 T01220117
Conditions at: KPNS (PENSACOLA , FL, US) observed 0921 UTC 24 January 2020
Temperature: 12.2°C (54°F)
Dewpoint: 11.7°C (53°F) [RH = 97%]
Pressure (altimeter): 29.93 inches Hg (1013.6 mb)
Winds: calm
Visibility: 1.50 miles (2.41 km)
Ceiling: at least 12,000 feet AGL
Clouds: few clouds at 300 feet AGL
scattered clouds at 2600 feet AGL
Weather: BR  (mist)

METAR text: KPNS 240908Z AUTO 00000KT 1/2SM R17/3500VP6000FT FG FEW003 BKN026 12/12 A2993 RMK AO2 T01220122
Conditions at: KPNS (PENSACOLA , FL, US) observed 0908 UTC 24 January 2020
Temperature: 12.2°C (54°F)
Dewpoint: 12.2°C (54°F) [RH = 100%]
Pressure (altimeter): 29.93 inches Hg (1013.6 mb)
Winds: calm
Visibility: 0.50 miles (0.80 km)
Ceiling: 2600 feet AGL
Clouds: few clouds at 300 feet AGL
broken clouds at 2600 feet AGL
Weather: FG  (fog)

METAR text: KPNS 240902Z AUTO 00000KT 1/4SM R17/3500V5000FT FG SCT003 SCT026 12/12 A2993 RMK AO2 T01170117
Conditions at: KPNS (PENSACOLA , FL, US) observed 0902 UTC 24 January 2020
Temperature: 11.7°C (53°F)
Dewpoint: 11.7°C (53°F) [RH = 100%]
Pressure (altimeter): 29.93 inches Hg (1013.6 mb)
Winds: calm
Visibility: 0.25 miles (0.40 km)
Ceiling: at least 12,000 feet AGL
Clouds: scattered clouds at 300 feet AGL
scattered clouds at 2600 feet AGL
Weather: FG  (fog)

METAR text: KPNS 240853Z AUTO 00000KT 1/2SM R17/1600V4000FT FG VV003 12/12 A2993 RMK AO2 SLP139 60000 T01170117 58003
Conditions at: KPNS (PENSACOLA , FL, US) observed 0853 UTC 24 January 2020
Temperature: 11.7°C (53°F)
Dewpoint: 11.7°C (53°F) [RH = 100%]
Pressure (altimeter): 29.93 inches Hg (1013.6 mb)
[Sea-level pressure: 1013.9 mb]
Winds: calm
Visibility: 0.50 miles (0.80 km)
Ceiling: indefinite ceiling with vertical visibility of 300 feet AGL
Clouds: obscured sky
Weather: FG  (fog)

METAR text: KPNS 240846Z AUTO 00000KT 1/2SM R17/1200V2200FT FG VV003 12/12 A2993 RMK AO2 T01220117
Conditions at: KPNS (PENSACOLA , FL, US) observed 0846 UTC 24 January 2020
Temperature: 12.2°C (54°F)
Dewpoint: 11.7°C (53°F) [RH = 97%]
Pressure (altimeter): 29.93 inches Hg (1013.6 mb)
Winds: calm
Visibility: 0.50 miles (0.80 km)
Ceiling: indefinite ceiling with vertical visibility of 300 feet AGL
Clouds: obscured sky
Weather: FG  (fog)

METAR text: KPNS 240828Z AUTO 00000KT 1/4SM R17/1800V5000FT FG VV003 12/12 A2993 RMK AO2 T01220117
Conditions at: KPNS (PENSACOLA , FL, US) observed 0828 UTC 24 January 2020
Temperature: 12.2°C (54°F)
Dewpoint: 11.7°C (53°F) [RH = 97%]
Pressure (altimeter): 29.93 inches Hg (1013.6 mb)
Winds: calm
Visibility: 0.25 miles (0.40 km)
Ceiling: indefinite ceiling with vertical visibility of 300 feet AGL
Clouds: obscured sky
Weather: FG  (fog)

METAR text: KPNS 240819Z AUTO 00000KT 1/2SM R17/2200VP6000FT FG VV003 12/12 A2993 RMK AO2 T01220117
Conditions at: KPNS (PENSACOLA , FL, US) observed 0819 UTC 24 January 2020
Temperature: 12.2°C (54°F)
Dewpoint: 11.7°C (53°F) [RH = 97%]
Pressure (altimeter): 29.93 inches Hg (1013.6 mb)
Winds: calm
Visibility: 0.50 miles (0.80 km)
Ceiling: indefinite ceiling with vertical visibility of 300 feet AGL
Clouds: obscured sky
Weather: FG  (fog)

METAR text: KPNS 240806Z AUTO 00000KT 1/2SM R17/2800VP6000FT FG SCT006 SCT039 13/12 A2993 RMK AO2 T01280122
Conditions at: KPNS (PENSACOLA , FL, US) observed 0806 UTC 24 January 2020
Temperature: 12.8°C (55°F)
Dewpoint: 12.2°C (54°F) [RH = 96%]
Pressure (altimeter): 29.93 inches Hg (1013.6 mb)
Winds: calm
Visibility: 0.50 miles (0.80 km)
Ceiling: at least 12,000 feet AGL
Clouds: scattered clouds at 600 feet AGL
scattered clouds at 3900 feet AGL
Weather: FG  (fog)

METAR text: KPNS 240758Z AUTO 00000KT 1SM R17/P6000FT BR SCT008 SCT039 14/13 A2993 RMK AO2 T01390128
Conditions at: KPNS (PENSACOLA , FL, US) observed 0758 UTC 24 January 2020
Temperature: 13.9°C (57°F)
Dewpoint: 12.8°C (55°F) [RH = 93%]
Pressure (altimeter): 29.93 inches Hg (1013.6 mb)
Winds: calm
Visibility: 1.00 miles (1.61 km)
Ceiling: at least 12,000 feet AGL
Clouds: scattered clouds at 800 feet AGL
scattered clouds at 3900 feet AGL
Weather: BR  (mist)

METAR text: KPNS 240753Z AUTO 00000KT 3/4SM R17/P6000FT BR BKN008 BKN021 BKN043 14/13 A2993 RMK AO2 SLP138 T01390128
Conditions at: KPNS (PENSACOLA , FL, US) observed 0753 UTC 24 January 2020
Temperature: 13.9°C (57°F)
Dewpoint: 12.8°C (55°F) [RH = 93%]
Pressure (altimeter): 29.93 inches Hg (1013.6 mb)
[Sea-level pressure: 1013.8 mb]
Winds: calm
Visibility: 0.75 miles (1.21 km)
Ceiling: 800 feet AGL
Clouds: broken clouds at 800 feet AGL
broken clouds at 2100 feet AGL
broken clouds at 4300 feet AGL
Weather: BR  (mist)

METAR text: KPNS 240723Z AUTO 00000KT 3/4SM R17/P6000FT BR FEW008 BKN013 BKN022 14/13 A2994 RMK AO2 T01390133
Conditions at: KPNS (PENSACOLA , FL, US) observed 0723 UTC 24 January 2020
Temperature: 13.9°C (57°F)
Dewpoint: 13.3°C (56°F) [RH = 96%]
Pressure (altimeter): 29.94 inches Hg (1014.0 mb)
Winds: calm
Visibility: 0.75 miles (1.21 km)
Ceiling: 1300 feet AGL
Clouds: few clouds at 800 feet AGL
broken clouds at 1300 feet AGL
broken clouds at 2200 feet AGL
Weather: BR  (mist)

METAR text: KPNS 240721Z AUTO 00000KT 1SM R17/P6000FT BR FEW010 BKN013 BKN022 14/13 A2994 RMK AO2 T01390133
Conditions at: KPNS (PENSACOLA , FL, US) observed 0721 UTC 24 January 2020
Temperature: 13.9°C (57°F)
Dewpoint: 13.3°C (56°F) [RH = 96%]
Pressure (altimeter): 29.94 inches Hg (1014.0 mb)
Winds: calm
Visibility: 1.00 miles (1.61 km)
Ceiling: 1300 feet AGL
Clouds: few clouds at 1000 feet AGL
broken clouds at 1300 feet AGL
broken clouds at 2200 feet AGL
Weather: BR  (mist)

METAR text: KPNS 240718Z AUTO 00000KT 2 1/2SM BR SCT013 BKN022 BKN085 14/13 A2994 RMK AO2 T01390133
Conditions at: KPNS (PENSACOLA , FL, US) observed 0718 UTC 24 January 2020
Temperature: 13.9°C (57°F)
Dewpoint: 13.3°C (56°F) [RH = 96%]
Pressure (altimeter): 29.94 inches Hg (1014.0 mb)
Winds: calm
Visibility: 2.50 miles (4.02 km)
Ceiling: 2200 feet AGL
Clouds: scattered clouds at 1300 feet AGL
broken clouds at 2200 feet AGL
broken clouds at 8500 feet AGL
Weather: BR  (mist)

METAR text: KPNS 240653Z AUTO 34003KT 9SM FEW003 BKN011 OVC043 14/14 A2994 RMK AO2 RAB02E11B33E50 SLP142 P0000 T01440139
Conditions at: KPNS (PENSACOLA , FL, US) observed 0653 UTC 24 January 2020
Temperature: 14.4°C (58°F)
Dewpoint: 13.9°C (57°F) [RH = 97%]
Pressure (altimeter): 29.94 inches Hg (1014.0 mb)
[Sea-level pressure: 1014.2 mb]
Winds: from the NNW (340 degrees) at 3 MPH (3 knots; 1.5 m/s)
Visibility: 9 miles (14 km)
Ceiling: 1100 feet AGL
Clouds: few clouds at 300 feet AGL
broken clouds at 1100 feet AGL
overcast cloud deck at 4300 feet AGL
Weather: automated observation with no human augmentation;
there may or may not be significant weather present at this time

METAR text: KPNS 240625Z AUTO 36006KT 7SM FEW002 SCT048 BKN070 14/13 A2994 RMK AO2 RAB02E11 P0000 T01390133
Conditions at: KPNS (PENSACOLA , FL, US) observed 0625 UTC 24 January 2020
Temperature: 13.9°C (57°F)
Dewpoint: 13.3°C (56°F) [RH = 96%]
Pressure (altimeter): 29.94 inches Hg (1014.0 mb)
Winds: from the N (360 degrees) at 7 MPH (6 knots; 3.1 m/s)
Visibility: 7 miles (11 km)
Ceiling: 7000 feet AGL
Clouds: few clouds at 200 feet AGL
scattered clouds at 4800 feet AGL
broken clouds at 7000 feet AGL
Weather: automated observation with no human augmentation;
there may or may not be significant weather present at this time

METAR text: KPNS 240553Z AUTO 06005KT 10SM FEW019 BKN031 OVC048 15/14 A2994 RMK AO2 SLP141 60030 T01500144 10167 20122 401670094 58013
Conditions at: KPNS (PENSACOLA , FL, US) observed 0553 UTC 24 January 2020
Temperature: 15.0°C (59°F)
Dewpoint: 14.4°C (58°F) [RH = 96%]
Pressure (altimeter): 29.94 inches Hg (1014.0 mb)
[Sea-level pressure: 1014.1 mb]
Winds: from the ENE (60 degrees) at 6 MPH (5 knots; 2.6 m/s)
Visibility: 10 or more miles (16+ km)
Ceiling: 3100 feet AGL
Clouds: few clouds at 1900 feet AGL
broken clouds at 3100 feet AGL
overcast cloud deck at 4800 feet AGL
Weather: automated observation with no human augmentation;
there may or may not be significant weather present at this time

METAR text: KPNS 240500Z AUTO 08004KT 10SM BKN070 16/14 A2995 RMK AO2 T01560144
Conditions at: KPNS (PENSACOLA , FL, US) observed 0500 UTC 24 January 2020
Temperature: 15.6°C (60°F)
Dewpoint: 14.4°C (58°F) [RH = 93%]
Pressure (altimeter): 29.95 inches Hg (1014.3 mb)
Winds: from the E (80 degrees) at 5 MPH (4 knots; 2.1 m/s)
Visibility: 10 or more miles (16+ km)
Ceiling: 7000 feet AGL
Clouds: broken clouds at 7000 feet AGL
Weather: automated observation with no human augmentation;
there may or may not be significant weather present at this time

METAR text: KPNS 240453Z 08005KT 10SM BKN009 BKN032 OVC047 16/14 A2995 RMK AO2 RAE29 SLP145 P0006 T01560144
Conditions at: KPNS (PENSACOLA , FL, US) observed 0453 UTC 24 January 2020
Temperature: 15.6°C (60°F)
Dewpoint: 14.4°C (58°F) [RH = 93%]
Pressure (altimeter): 29.95 inches Hg (1014.3 mb)
[Sea-level pressure: 1014.5 mb]
Winds: from the E (80 degrees) at 6 MPH (5 knots; 2.6 m/s)
Visibility: 10 or more miles (16+ km)
Ceiling: 900 feet AGL
Clouds: broken clouds at 900 feet AGL
broken clouds at 3200 feet AGL
overcast cloud deck at 4700 feet AGL
Weather: no significant weather observed at this time

METAR text: KPNS 240407Z 32006KT 4SM RA BR BKN009 BKN032 OVC047 16/15 A2998 RMK AO2 P0002 T01610150
Conditions at: KPNS (PENSACOLA , FL, US) observed 0407 UTC 24 January 2020
Temperature: 16.1°C (61°F)
Dewpoint: 15.0°C (59°F) [RH = 93%]
Pressure (altimeter): 29.98 inches Hg (1015.3 mb)
Winds: from the NW (320 degrees) at 7 MPH (6 knots; 3.1 m/s)
Visibility: 4 miles ( 6 km)
Ceiling: 900 feet AGL
Clouds: broken clouds at 900 feet AGL
broken clouds at 3200 feet AGL
overcast cloud deck at 4700 feet AGL
Weather: RA BR  (moderate rain, mist)

METAR text: KPNS 240353Z 11008KT 7SM -RA SCT009 BKN022 OVC055 16/15 A2997 RMK AO2 SLP151 P0023 T01610150
Conditions at: KPNS (PENSACOLA , FL, US) observed 0353 UTC 24 January 2020
Temperature: 16.1°C (61°F)
Dewpoint: 15.0°C (59°F) [RH = 93%]
Pressure (altimeter): 29.97 inches Hg (1015.0 mb)
[Sea-level pressure: 1015.1 mb]
Winds: from the ESE (110 degrees) at 9 MPH (8 knots; 4.1 m/s)
Visibility: 7 miles (11 km)
Ceiling: 2200 feet AGL
Clouds: scattered clouds at 900 feet AGL
broken clouds at 2200 feet AGL
overcast cloud deck at 5500 feet AGL
Weather: -RA  (light rain)

METAR text: KPNS 240331Z COR 12009KT 3SM +RA BR BKN009 BKN026 OVC048 17/15 A2997 RMK AO2 P0020 T01670150
Conditions at: KPNS (PENSACOLA , FL, US) observed 0331 UTC 24 January 2020
Temperature: 16.7°C (62°F)
Dewpoint: 15.0°C (59°F) [RH = 90%]
Pressure (altimeter): 29.97 inches Hg (1015.0 mb)
Winds: from the ESE (120 degrees) at 10 MPH (9 knots; 4.6 m/s)
Visibility: 3 miles ( 5 km)
Ceiling: 900 feet AGL
Clouds: broken clouds at 900 feet AGL
broken clouds at 2600 feet AGL
overcast cloud deck at 4800 feet AGL
Weather: +RA BR  (heavy rain, mist)

METAR text: KPNS 240328Z VRB03KT 2 1/2SM R17/6000VP6000FT +RA BR BKN009 BKN021 OVC041 16/15 A2997 RMK AO2 VIS 1 3/4V4 P0017 T01610150
Conditions at: KPNS (PENSACOLA , FL, US) observed 0328 UTC 24 January 2020
Temperature: 16.1°C (61°F)
Dewpoint: 15.0°C (59°F) [RH = 93%]
Pressure (altimeter): 29.97 inches Hg (1015.0 mb)
Winds: variable direction winds at 3 MPH (3 knots; 1.5 m/s)
Visibility: 2.50 miles (4.02 km)
Ceiling: 900 feet AGL
Clouds: broken clouds at 900 feet AGL
broken clouds at 2100 feet AGL
overcast cloud deck at 4100 feet AGL
Weather: +RA BR  (heavy rain, mist)

METAR text: KPNS 240327Z VRB03KT 2 1/2SM R17/6000VP6000FT +RA BR BKN009 BKN021 OVC041 16/14 A2997 RMK AO2 VIS 1 3/4V5 P0017 T01610144
Conditions at: KPNS (PENSACOLA , FL, US) observed 0327 UTC 24 January 2020
Temperature: 16.1°C (61°F)
Dewpoint: 14.4°C (58°F) [RH = 90%]
Pressure (altimeter): 29.97 inches Hg (1015.0 mb)
Winds: variable direction winds at 3 MPH (3 knots; 1.5 m/s)
Visibility: 2.50 miles (4.02 km)
Ceiling: 900 feet AGL
Clouds: broken clouds at 900 feet AGL
broken clouds at 2100 feet AGL
overcast cloud deck at 4100 feet AGL
Weather: +RA BR  (heavy rain, mist)

METAR text: KPNS 240310Z 11008KT 3SM R17/6000VP6000FT -RA BR SCT004 BKN011 OVC041 16/14 A2997 RMK AO2 P0012 T01610144
Conditions at: KPNS (PENSACOLA , FL, US) observed 0310 UTC 24 January 2020
Temperature: 16.1°C (61°F)
Dewpoint: 14.4°C (58°F) [RH = 90%]
Pressure (altimeter): 29.97 inches Hg (1015.0 mb)
Winds: from the ESE (110 degrees) at 9 MPH (8 knots; 4.1 m/s)
Visibility: 3 miles ( 5 km)
Ceiling: 1100 feet AGL
Clouds: scattered clouds at 400 feet AGL
broken clouds at 1100 feet AGL
overcast cloud deck at 4100 feet AGL
Weather: -RA BR  (light rain, mist)

METAR text: KPNS 240301Z 2 1/2SM R17/5000VP6000FT +RA BR BKN004 OVC011 16/14 A2997 RMK AO2 P0002 T01560144
Conditions at: KPNS (PENSACOLA , FL, US) observed 0301 UTC 24 January 2020
Temperature: 15.6°C (60°F)
Dewpoint: 14.4°C (58°F) [RH = 93%]
Pressure (altimeter): 29.97 inches Hg (1015.0 mb)
Winds: missing
Visibility: 2.50 miles (4.02 km)
Ceiling: 400 feet AGL
Clouds: broken clouds at 400 feet AGL
overcast cloud deck at 1100 feet AGL
Weather: +RA BR  (heavy rain, mist)

Forecast for: KPNS (PENSACOLA , FL, US)
Text: KPNS 251120Z 2512/2612 33008KT P6SM SKC
Forecast period: 1200 UTC 25 January 2020 to 0000 UTC 26 January 2020
Forecast type: FROM: standard forecast or significant change
Winds: from the NNW (330 degrees) at 9 MPH (8 knots; 4.1 m/s)
Visibility: 6 or more miles 10+ km)
Clouds: clear skies
Weather: no significant weather forecast for this period
Text: FM260000 26004KT P6SM FEW250
Forecast period: 0000 to 0900 UTC 26 January 2020
Forecast type: FROM: standard forecast or significant change
Winds: from the W (260 degrees) at 5 MPH (4 knots; 2.1 m/s)
Visibility: 6 or more miles 10+ km)
Ceiling: at least 12,000 feet AGL
Clouds: few clouds at 25000 feet AGL
Weather: no significant weather forecast for this period
Text: FM260900 VRB03KT P6SM FEW200 FEW250
Forecast period: 0900 to 1200 UTC 26 January 2020
Forecast type: FROM: standard forecast or significant change
Winds: variable direction winds at 3 MPH (3 knots; 1.5 m/s)
Visibility: 6 or more miles 10+ km)
Ceiling: at least 12,000 feet AGL
Clouds: few clouds at 20000 feet AGL
few clouds at 25000 feet AGL
Weather: no significant weather forecast for this period